Grand Forks, North Dakota
Current Conditions -  °F | °C
As of 7:53 PM on Friday 24 Oct 2014 (Local Time) from KGFK Reporting Station
Scattered Clouds Scattered Clouds  
Wind Chill: 58°   Ceiling: Unl
Heat Index: 58°   Visibility: 10mi
Dew Point: 33°   Wind: 9mph
Humidity: 39%   Direction: 270°W
Pressure: 29.82"   Gusts: NA
Location:  47.92°N, 97.03°W
Report Text: KGFK 250053Z 27008KT 10SM SCT250 14/01 A2982 RMK AO2 SLP103 T01440006
Loading
Personal Weather Stations






























Interactive Weather Map
Tropical Storm Tracking
New forecast layout! Learn more

10-Day Weather Forecast

Advertisements
Track Severe Weather on mobile